createdAt,value
2022-10-19T00:00:01.161Z,27.00
2022-10-19T00:02:28.975Z,25.70
2022-10-19T00:04:56.850Z,32.75
2022-10-19T00:07:24.611Z,25.27
2022-10-19T00:09:52.446Z,22.33
2022-10-19T00:12:20.165Z,30.77
2022-10-19T00:14:47.933Z,31.55
2022-10-19T00:17:17.050Z,33.25
2022-10-19T00:19:44.767Z,29.35
2022-10-19T00:22:14.020Z,32.25
2022-10-19T00:24:42.572Z,26.55
2022-10-19T00:27:10.540Z,28.15
2022-10-19T00:29:38.905Z,24.60
2022-10-19T00:32:06.902Z,26.38
2022-10-19T00:34:36.024Z,29.10
2022-10-19T00:37:03.871Z,27.90
2022-10-19T00:39:31.669Z,28.42
2022-10-19T00:41:59.493Z,38.70
2022-10-19T00:44:59.881Z,26.90
2022-10-19T00:47:28.155Z,33.13
2022-10-19T00:49:59.612Z,23.00
2022-10-19T00:52:28.480Z,21.42
2022-10-19T00:54:57.617Z,28.35
2022-10-19T00:57:29.704Z,27.08
2022-10-19T00:59:59.774Z,20.58
2022-10-19T01:02:27.888Z,17.05
2022-10-19T01:04:57.269Z,19.85
2022-10-19T01:07:26.232Z,20.90
2022-10-19T01:09:54.467Z,22.35
2022-10-19T01:13:06.521Z,21.98
2022-10-19T01:15:42.811Z,25.27
2022-10-19T01:18:20.124Z,25.75
2022-10-19T01:21:09.705Z,19.63
2022-10-19T01:24:12.712Z,23.60
2022-10-19T01:27:10.822Z,21.85
2022-10-19T01:30:01.122Z,22.65
2022-10-19T01:32:39.286Z,19.95
2022-10-19T01:35:12.882Z,20.95
2022-10-19T01:37:47.254Z,29.25
2022-10-19T01:40:25.175Z,28.83
2022-10-19T01:43:01.000Z,20.50
2022-10-19T01:45:36.795Z,25.27
2022-10-19T01:48:08.297Z,20.92
2022-10-19T01:50:41.672Z,25.00
2022-10-19T01:53:12.427Z,19.65
2022-10-19T01:55:43.594Z,19.65
2022-10-19T01:58:15.394Z,20.40
2022-10-19T02:00:47.369Z,18.77
2022-10-19T02:03:16.641Z,17.85
2022-10-19T02:05:45.849Z,15.70
2022-10-19T02:08:15.989Z,16.17
2022-10-19T02:10:45.580Z,18.40
2022-10-19T02:13:16.028Z,17.40
2022-10-19T02:15:50.786Z,15.38
2022-10-19T02:18:23.516Z,19.10
2022-10-19T02:20:51.305Z,15.48
2022-10-19T02:23:23.204Z,10.40
2022-10-19T02:25:51.101Z,16.90
2022-10-19T02:28:19.372Z,19.35
2022-10-19T02:30:49.073Z,15.30
2022-10-19T02:33:17.380Z,15.35
2022-10-19T02:35:45.368Z,17.45
2022-10-19T02:38:18.109Z,19.77
2022-10-19T02:40:53.945Z,17.63
2022-10-19T02:43:24.476Z,11.77
2022-10-19T02:45:59.586Z,21.35
2022-10-19T02:48:30.872Z,15.05
2022-10-19T02:50:58.633Z,15.40
2022-10-19T02:53:26.395Z,22.67
2022-10-19T02:55:54.136Z,14.68
2022-10-19T02:58:22.184Z,13.07
2022-10-19T03:00:49.957Z,11.85
2022-10-19T03:03:19.108Z,16.45
2022-10-19T03:05:46.846Z,12.20
2022-10-19T03:08:14.575Z,17.92
2022-10-19T03:10:42.295Z,15.00
2022-10-19T03:13:10.010Z,13.02
2022-10-19T03:15:37.732Z,13.32
2022-10-19T03:18:05.527Z,11.50
2022-10-19T03:20:34.571Z,16.25
2022-10-19T03:23:02.312Z,15.45
2022-10-19T03:25:30.055Z,17.90
2022-10-19T03:27:57.732Z,15.15
2022-10-19T03:30:25.470Z,17.10
2022-10-19T03:32:53.202Z,15.60
2022-10-19T03:35:20.906Z,12.98
2022-10-19T03:37:49.943Z,10.55
2022-10-19T03:40:17.889Z,11.57
2022-10-19T03:42:45.586Z,13.38
2022-10-19T03:45:13.307Z,15.13
2022-10-19T03:47:41.069Z,19.65
2022-10-19T03:50:11.278Z,15.77
2022-10-19T03:52:38.975Z,15.68
2022-10-19T03:55:10.337Z,18.00
2022-10-19T03:57:38.301Z,20.00
2022-10-19T04:00:06.849Z,14.82
2022-10-19T04:02:39.598Z,17.73
2022-10-19T04:05:08.572Z,23.00
2022-10-19T04:07:36.475Z,22.25
2022-10-19T04:10:04.790Z,20.30
2022-10-19T04:12:34.366Z,20.13
2022-10-19T04:15:02.070Z,18.67
2022-10-19T04:17:29.815Z,19.73
2022-10-19T04:19:57.536Z,18.48
2022-10-19T04:22:25.277Z,18.48
2022-10-19T04:24:54.398Z,23.55
2022-10-19T04:27:22.089Z,23.92
2022-10-19T04:29:51.160Z,25.65
2022-10-19T04:32:18.872Z,22.33
2022-10-19T04:34:46.534Z,21.90
2022-10-19T04:37:14.281Z,19.38
2022-10-19T04:39:43.365Z,23.35
2022-10-19T04:42:11.319Z,21.08
2022-10-19T04:44:39.555Z,23.98
2022-10-19T04:47:08.629Z,26.42
2022-10-19T04:49:36.359Z,41.08
2022-10-19T04:52:04.324Z,32.58
2022-10-19T04:54:32.055Z,23.65
2022-10-19T04:56:59.783Z,23.45
2022-10-19T04:59:28.176Z,28.70
2022-10-19T05:01:55.896Z,28.33
2022-10-19T05:04:25.005Z,21.85
2022-10-19T05:06:52.772Z,28.10
2022-10-19T05:09:20.566Z,34.65
2022-10-19T05:11:50.263Z,26.98
2022-10-19T05:14:18.096Z,32.03
2022-10-19T05:16:45.887Z,20.13
2022-10-19T05:19:15.029Z,19.95
2022-10-19T05:21:44.198Z,23.00
2022-10-19T05:24:14.179Z,29.33
2022-10-19T05:26:42.185Z,27.40
2022-10-19T05:29:13.364Z,22.23
2022-10-19T05:31:41.297Z,26.40
2022-10-19T05:34:09.027Z,19.77
2022-10-19T05:36:38.542Z,27.95
2022-10-19T05:39:09.711Z,23.42
2022-10-19T05:41:37.594Z,24.27
2022-10-19T05:44:06.458Z,19.27
2022-10-19T05:46:35.302Z,21.25
2022-10-19T05:49:03.145Z,25.38
2022-10-19T05:51:30.903Z,27.38
2022-10-19T05:53:58.842Z,21.00
2022-10-19T05:56:29.949Z,30.15
2022-10-19T05:58:58.589Z,21.20
2022-10-19T06:01:27.273Z,21.10
2022-10-19T06:03:56.576Z,19.95
2022-10-19T06:08:53.573Z,16.48
2022-10-19T06:11:23.753Z,17.13
2022-10-19T06:13:55.710Z,18.20
2022-10-19T06:16:24.859Z,17.55
2022-10-19T06:18:54.132Z,20.42
2022-10-19T06:21:25.422Z,16.38
2022-10-19T06:23:54.672Z,17.58
2022-10-19T06:26:22.833Z,17.48
2022-10-19T06:28:52.523Z,21.30
2022-10-19T06:31:20.260Z,26.17
2022-10-19T06:33:49.448Z,26.10
2022-10-19T06:36:19.186Z,20.88
2022-10-19T06:41:15.120Z,29.20
2022-10-19T06:43:43.323Z,38.13
2022-10-19T06:46:15.438Z,36.83
2022-10-19T06:48:43.224Z,26.20
2022-10-19T06:51:11.832Z,37.47
2022-10-19T06:53:39.559Z,27.17
2022-10-19T06:56:08.211Z,24.08
2022-10-19T06:58:37.216Z,22.40
2022-10-19T07:01:07.463Z,21.33
2022-10-19T07:03:37.475Z,28.60
2022-10-19T07:06:07.040Z,25.92
2022-10-19T07:08:35.822Z,33.50
2022-10-19T07:11:06.233Z,27.30
2022-10-19T07:13:34.160Z,28.88
2022-10-19T07:16:05.528Z,28.65
2022-10-19T07:18:34.001Z,21.45
2022-10-19T07:21:05.728Z,26.70
2022-10-19T07:23:35.551Z,24.38
2022-10-19T07:26:06.215Z,24.25
2022-10-19T07:28:35.157Z,28.45
2022-10-19T07:31:07.228Z,27.77
2022-10-19T07:33:35.365Z,39.08
2022-10-19T07:36:06.781Z,27.70
2022-10-19T07:38:35.234Z,63.90
2022-10-19T07:41:05.034Z,40.47
2022-10-19T07:43:33.105Z,93.82
2022-10-19T07:46:02.834Z,59.00
2022-10-19T07:48:30.682Z,71.55
2022-10-19T07:50:58.771Z,59.28
2022-10-19T07:53:27.868Z,53.33
2022-10-19T07:55:55.772Z,64.82
2022-10-19T07:58:23.530Z,58.80
2022-10-19T08:00:51.525Z,121.05
2022-10-19T08:06:11.093Z,157.55
2022-10-19T08:08:40.992Z,241.95
2022-10-19T08:11:09.691Z,185.52
2022-10-19T08:13:37.919Z,244.90
2022-10-19T08:16:06.366Z,124.80
2022-10-19T08:18:34.171Z,50.50
2022-10-19T08:21:03.547Z,84.68
2022-10-19T08:26:00.319Z,82.25
2022-10-19T08:28:28.093Z,59.92
2022-10-19T08:30:58.838Z,42.72
2022-10-19T08:33:27.527Z,52.17
2022-10-19T08:35:55.288Z,49.25
2022-10-19T08:38:23.032Z,77.47
2022-10-19T08:40:50.851Z,107.15
2022-10-19T08:43:26.816Z,90.93
2022-10-19T08:46:01.488Z,116.13
2022-10-19T08:48:33.009Z,175.25
2022-10-19T08:51:01.895Z,100.25
2022-10-19T08:53:39.893Z,115.95
2022-10-19T08:56:38.833Z,85.20
2022-10-19T08:59:15.477Z,103.57
2022-10-19T09:01:50.710Z,186.38
2022-10-19T09:04:23.080Z,121.97
2022-10-19T09:07:11.732Z,84.07
2022-10-19T09:12:18.677Z,72.47
2022-10-19T09:14:56.908Z,57.45
2022-10-19T09:17:25.272Z,45.70
2022-10-19T09:19:53.212Z,33.43
2022-10-19T09:22:25.058Z,28.95
2022-10-19T09:24:55.358Z,34.10
2022-10-19T09:27:26.019Z,50.55
2022-10-19T09:29:58.405Z,43.35
2022-10-19T09:32:33.012Z,35.50
2022-10-19T09:35:03.610Z,44.30
2022-10-19T09:37:33.590Z,30.80
2022-10-19T09:40:01.293Z,27.85
2022-10-19T09:42:33.358Z,27.65
2022-10-19T09:45:15.549Z,26.50
2022-10-19T09:47:48.901Z,19.85
2022-10-19T09:50:20.050Z,22.75
2022-10-19T09:52:49.181Z,26.10
2022-10-19T09:55:27.372Z,20.40
2022-10-19T09:58:04.158Z,24.17
2022-10-19T10:00:42.464Z,22.77
2022-10-19T10:03:23.945Z,28.33
2022-10-19T10:05:51.936Z,24.60
2022-10-19T10:08:22.550Z,24.55
2022-10-19T10:10:59.662Z,22.38
2022-10-19T10:13:28.627Z,23.10
2022-10-19T10:16:01.220Z,22.38
2022-10-19T10:18:30.257Z,22.52
2022-10-19T10:21:06.089Z,26.00
2022-10-19T10:23:36.479Z,19.73
2022-10-19T10:28:33.060Z,19.55
2022-10-19T10:31:05.837Z,23.60
2022-10-19T10:33:45.455Z,17.80
2022-10-19T10:36:14.135Z,19.38
2022-10-19T10:38:46.311Z,17.45
2022-10-19T10:41:17.633Z,18.00
2022-10-19T10:43:53.383Z,21.67
2022-10-19T10:46:26.361Z,17.88
2022-10-19T10:48:57.909Z,18.88
2022-10-19T10:51:40.042Z,16.52
2022-10-19T10:54:15.851Z,18.15
2022-10-19T10:56:44.610Z,15.93
2022-10-19T10:59:19.714Z,23.20
2022-10-19T11:01:59.506Z,20.10
2022-10-19T11:04:32.584Z,18.02
2022-10-19T11:07:06.033Z,17.38
2022-10-19T11:09:37.611Z,17.77
2022-10-19T11:12:10.089Z,20.52
2022-10-19T11:14:44.829Z,22.40
2022-10-19T11:17:18.802Z,19.00
2022-10-19T11:19:46.651Z,24.35
2022-10-19T11:22:26.398Z,21.00
2022-10-19T11:25:11.145Z,23.27
2022-10-19T11:27:48.459Z,23.55
2022-10-19T11:30:19.477Z,23.83
2022-10-19T11:32:57.272Z,24.10
2022-10-19T11:35:46.280Z,22.50
2022-10-19T11:41:16.990Z,25.80
2022-10-19T11:43:57.201Z,20.85
2022-10-19T11:49:07.927Z,27.48
2022-10-19T11:51:41.620Z,32.92
2022-10-19T11:54:27.778Z,27.70
2022-10-19T11:57:05.544Z,33.50
2022-10-19T11:59:48.250Z,28.88
2022-10-19T12:02:35.248Z,33.30
2022-10-19T12:05:07.254Z,27.45
2022-10-19T12:07:49.572Z,34.33
2022-10-19T12:10:26.424Z,32.85
2022-10-19T12:12:58.727Z,32.05
2022-10-19T12:15:31.730Z,30.23
2022-10-19T12:18:05.166Z,35.78
2022-10-19T12:20:39.676Z,40.75
2022-10-19T12:23:25.755Z,35.83
2022-10-19T12:25:56.182Z,31.67
2022-10-19T12:28:29.918Z,34.20
2022-10-19T12:30:58.833Z,33.25
2022-10-19T12:33:31.417Z,37.58
2022-10-19T12:36:10.247Z,28.45
2022-10-19T12:38:51.008Z,30.63
2022-10-19T12:41:32.369Z,34.88
2022-10-19T12:44:15.814Z,30.95
2022-10-19T12:46:49.902Z,29.45
2022-10-19T12:49:44.132Z,31.45
2022-10-19T12:52:14.940Z,30.05
2022-10-19T12:54:44.485Z,33.58
2022-10-19T12:57:30.176Z,26.38
2022-10-19T13:00:07.863Z,29.77
2022-10-19T13:02:37.812Z,24.15
2022-10-19T13:05:07.016Z,28.05
2022-10-19T13:10:09.658Z,29.88
2022-10-19T13:12:46.559Z,28.23
2022-10-19T13:15:50.881Z,25.20
2022-10-19T13:19:07.024Z,23.13
2022-10-19T13:22:14.438Z,27.58
2022-10-19T13:24:43.769Z,33.50
2022-10-19T13:27:39.524Z,27.83
2022-10-19T13:30:48.017Z,25.40
2022-10-19T13:33:52.327Z,31.58
2022-10-19T13:36:22.844Z,27.23
2022-10-19T13:39:15.021Z,26.63
2022-10-19T13:41:49.070Z,25.55
2022-10-19T13:44:25.051Z,27.75
2022-10-19T13:47:24.083Z,29.33
2022-10-19T13:50:23.289Z,25.17
2022-10-19T13:55:56.237Z,23.50
2022-10-19T13:58:49.667Z,24.15
2022-10-19T14:01:32.457Z,20.25
2022-10-19T14:04:18.601Z,20.23
2022-10-19T14:06:51.767Z,21.67
2022-10-19T14:09:55.002Z,26.00
2022-10-19T14:12:26.163Z,16.75
2022-10-19T14:14:54.304Z,19.67
2022-10-19T14:17:24.537Z,18.80
2022-10-19T14:19:54.472Z,18.35
2022-10-19T14:22:27.346Z,17.60
2022-10-19T14:25:02.623Z,17.42
2022-10-19T14:27:32.399Z,20.20
2022-10-19T14:30:00.565Z,17.17
2022-10-19T14:32:30.412Z,16.23
2022-10-19T14:35:02.112Z,14.35
2022-10-19T14:37:29.966Z,18.85
2022-10-19T14:39:59.606Z,21.05
2022-10-19T14:42:39.991Z,12.55
2022-10-19T14:45:13.666Z,14.13
2022-10-19T14:47:53.145Z,19.08
2022-10-19T14:50:24.542Z,13.57
2022-10-19T14:52:57.205Z,18.98
2022-10-19T14:55:27.308Z,23.30
2022-10-19T14:57:56.541Z,14.10
2022-10-19T15:03:01.762Z,13.90
2022-10-19T15:05:32.332Z,19.98
2022-10-19T15:08:09.420Z,13.15
2022-10-19T15:10:43.819Z,13.75
2022-10-19T15:13:25.374Z,15.10
2022-10-19T15:15:54.404Z,15.30
2022-10-19T15:18:44.060Z,13.27
2022-10-19T15:21:15.102Z,12.35
2022-10-19T15:23:44.809Z,12.45
2022-10-19T15:26:19.381Z,12.75
2022-10-19T15:28:49.646Z,15.13
2022-10-19T15:31:20.091Z,12.45
2022-10-19T15:33:52.903Z,15.02
2022-10-19T15:36:22.671Z,14.10
2022-10-19T15:39:11.681Z,12.15
2022-10-19T15:41:48.940Z,12.80
2022-10-19T15:44:34.019Z,14.93
2022-10-19T15:47:21.411Z,14.65
2022-10-19T15:49:55.802Z,11.45
2022-10-19T15:52:24.845Z,12.43
2022-10-19T15:54:54.162Z,11.48
2022-10-19T16:00:07.785Z,18.17
2022-10-19T16:02:35.828Z,14.75
2022-10-19T16:05:03.627Z,12.63
2022-10-19T16:07:34.417Z,13.13
2022-10-19T16:10:02.380Z,16.25
2022-10-19T16:12:30.150Z,13.77
2022-10-19T16:14:58.002Z,14.13
2022-10-19T16:17:27.868Z,12.88
2022-10-19T16:19:55.714Z,22.15
2022-10-19T16:22:23.633Z,21.73
2022-10-19T16:24:51.468Z,13.43
2022-10-19T16:27:19.312Z,17.67
2022-10-19T16:29:47.186Z,14.52
2022-10-19T16:32:15.132Z,22.75
2022-10-19T16:34:44.354Z,13.73
2022-10-19T16:37:12.212Z,18.08
2022-10-19T16:39:40.030Z,18.50
2022-10-19T16:42:08.081Z,10.95
2022-10-19T16:44:35.887Z,14.57
2022-10-19T16:47:03.975Z,12.85
2022-10-19T16:49:31.945Z,17.50
2022-10-19T16:52:01.673Z,14.73
2022-10-19T16:54:30.641Z,13.23
2022-10-19T16:56:58.402Z,12.02
2022-10-19T16:59:26.267Z,16.30
2022-10-19T17:01:54.269Z,13.10
2022-10-19T17:04:22.219Z,15.75
2022-10-19T17:06:50.126Z,13.48
2022-10-19T17:12:07.912Z,13.73
2022-10-19T17:14:36.531Z,13.45
2022-10-19T17:17:04.574Z,12.93
2022-10-19T17:19:32.666Z,12.57
2022-10-19T17:22:01.823Z,11.90
2022-10-19T17:24:31.115Z,11.05
2022-10-19T17:27:02.317Z,11.82
2022-10-19T17:29:30.503Z,9.73
2022-10-19T17:31:58.724Z,11.32
2022-10-19T17:34:27.263Z,12.27
2022-10-19T17:36:55.260Z,9.05
2022-10-19T17:39:28.901Z,15.73
2022-10-19T17:42:02.005Z,11.43
2022-10-19T17:44:31.334Z,12.88
2022-10-19T17:46:59.333Z,12.23
2022-10-19T17:49:27.186Z,11.27
2022-10-19T17:51:54.968Z,13.38
2022-10-19T17:54:22.868Z,11.50
2022-10-19T17:56:50.697Z,11.07
2022-10-19T17:59:30.285Z,14.55
2022-10-19T18:02:02.927Z,10.65
2022-10-19T18:04:30.826Z,9.95
2022-10-19T18:06:58.680Z,13.93
2022-10-19T18:09:26.430Z,9.18
2022-10-19T18:11:54.326Z,9.70
2022-10-19T18:14:23.496Z,9.00
2022-10-19T18:16:52.133Z,9.23
2022-10-19T18:19:19.947Z,12.60
2022-10-19T18:21:49.136Z,13.70
2022-10-19T18:24:19.939Z,16.83
2022-10-19T18:26:48.400Z,9.63
2022-10-19T18:29:18.243Z,13.83
2022-10-19T18:31:51.565Z,13.10
2022-10-19T18:34:20.854Z,9.90
2022-10-19T18:36:48.972Z,17.10
2022-10-19T18:39:17.393Z,13.57
2022-10-19T18:41:45.345Z,19.77
2022-10-19T18:44:14.398Z,10.23
2022-10-19T18:46:42.576Z,13.13
2022-10-19T18:49:12.688Z,11.85
2022-10-19T18:51:40.911Z,17.33
2022-10-19T18:54:09.273Z,18.65
2022-10-19T18:56:37.415Z,15.67
2022-10-19T18:59:05.410Z,11.93
2022-10-19T19:01:33.282Z,16.52
2022-10-19T19:04:07.506Z,15.23
2022-10-19T19:06:38.241Z,11.60
2022-10-19T19:09:08.816Z,12.85
2022-10-19T19:11:38.319Z,19.92
2022-10-19T19:14:08.654Z,15.73
2022-10-19T19:16:38.806Z,12.98
2022-10-19T19:19:07.522Z,23.50
2022-10-19T19:21:38.311Z,14.68
2022-10-19T19:24:08.176Z,14.38
2022-10-19T19:26:39.838Z,14.70
2022-10-19T19:29:08.161Z,15.82
2022-10-19T19:31:36.344Z,10.85
2022-10-19T19:34:06.265Z,14.43
2022-10-19T19:36:34.235Z,12.00
2022-10-19T19:39:03.738Z,15.55
2022-10-19T19:41:34.066Z,15.93
2022-10-19T19:44:02.028Z,19.80
2022-10-19T19:46:29.928Z,14.95
2022-10-19T19:49:01.084Z,22.27
2022-10-19T19:51:30.541Z,17.83
2022-10-19T19:53:58.359Z,17.10
2022-10-19T19:56:28.789Z,17.42
2022-10-19T19:58:57.636Z,11.77
2022-10-19T20:01:26.090Z,19.20
2022-10-19T20:03:54.045Z,15.15
2022-10-19T20:06:25.061Z,17.20
2022-10-19T20:08:54.502Z,19.38
2022-10-19T20:11:23.432Z,18.42
2022-10-19T20:13:52.825Z,14.43
2022-10-19T20:16:25.177Z,19.48
2022-10-19T20:18:59.681Z,17.00
2022-10-19T20:21:27.771Z,13.68
2022-10-19T20:23:55.757Z,17.58
2022-10-19T20:26:24.970Z,18.83
2022-10-19T20:28:54.651Z,15.52
2022-10-19T20:31:22.855Z,19.20
2022-10-19T20:33:50.900Z,14.95
2022-10-19T20:36:21.315Z,16.50
2022-10-19T20:38:50.638Z,18.05
2022-10-19T20:43:47.306Z,15.52
2022-10-19T20:46:18.716Z,15.43
2022-10-19T20:48:46.898Z,18.80
2022-10-19T20:51:17.303Z,14.98
2022-10-19T20:53:47.152Z,16.00
2022-10-19T20:56:16.546Z,15.93
2022-10-19T20:58:45.275Z,20.77
2022-10-19T21:01:15.034Z,16.83
2022-10-19T21:03:48.676Z,13.98
2022-10-19T21:06:17.175Z,25.25
2022-10-19T21:08:45.164Z,17.23
2022-10-19T21:11:14.739Z,20.58
2022-10-19T21:13:42.946Z,15.13
2022-10-19T21:16:12.322Z,15.18
2022-10-19T21:21:14.900Z,19.02
2022-10-19T21:23:43.562Z,13.05
2022-10-19T21:26:11.354Z,14.15
2022-10-19T21:28:39.915Z,17.95
2022-10-19T21:31:10.275Z,16.73
2022-10-19T21:33:38.118Z,14.30
2022-10-19T21:36:08.976Z,14.82
2022-10-19T21:38:38.333Z,15.48
2022-10-19T21:43:35.739Z,13.52
2022-10-19T21:46:04.579Z,16.20
2022-10-19T21:48:33.855Z,19.42
2022-10-19T21:51:13.698Z,17.98
2022-10-19T21:53:42.834Z,18.50
2022-10-19T21:56:10.835Z,15.98
2022-10-19T21:58:38.588Z,14.18
2022-10-19T22:01:06.951Z,14.48
2022-10-19T22:03:35.607Z,15.30
2022-10-19T22:06:03.444Z,13.88
2022-10-19T22:08:31.342Z,17.98
2022-10-19T22:11:05.451Z,17.98
2022-10-19T22:13:33.422Z,13.52
2022-10-19T22:16:05.625Z,14.45
2022-10-19T22:18:33.564Z,13.75
2022-10-19T22:21:04.565Z,14.60
2022-10-19T22:23:32.295Z,14.70
2022-10-19T22:26:01.562Z,14.73
2022-10-19T22:30:58.208Z,13.65
2022-10-19T22:33:26.488Z,18.27
2022-10-19T22:35:55.662Z,14.32
2022-10-19T22:38:23.439Z,17.90
2022-10-19T22:40:51.216Z,18.15
2022-10-19T22:43:20.395Z,17.30
2022-10-19T22:45:48.687Z,14.73
2022-10-19T22:48:16.874Z,13.88
2022-10-19T22:50:45.097Z,13.38
2022-10-19T22:53:13.443Z,12.52
2022-10-19T22:55:41.246Z,17.17
2022-10-19T23:00:43.871Z,13.98
2022-10-19T23:03:11.638Z,17.55
2022-10-19T23:05:39.436Z,13.88
2022-10-19T23:08:07.177Z,12.40
2022-10-19T23:10:34.935Z,13.27
2022-10-19T23:13:02.661Z,23.33
2022-10-19T23:15:30.416Z,13.93
2022-10-19T23:18:00.403Z,14.38
2022-10-19T23:20:28.152Z,14.90
2022-10-19T23:22:55.895Z,18.48
2022-10-19T23:25:23.647Z,17.30
2022-10-19T23:27:51.467Z,14.85
2022-10-19T23:30:19.225Z,12.77
2022-10-19T23:32:46.950Z,15.15
2022-10-19T23:35:16.277Z,15.73
2022-10-19T23:40:12.521Z,19.33
2022-10-19T23:42:40.207Z,16.63
2022-10-19T23:45:08.712Z,16.48
2022-10-19T23:47:36.926Z,17.02
2022-10-19T23:50:05.200Z,19.30
2022-10-19T23:52:34.361Z,20.08
2022-10-19T23:55:02.177Z,16.42
2022-10-19T23:57:29.869Z,17.05
2022-10-19T23:59:57.620Z,16.08
